Time;durP1;ratioP1;P1;durP2;ratioP2;P2;SDS_P1;SDS_P2;PMS_P1;PMS_P2;Temp;Humidity;BMP_temperature;BMP_pressure;BME280_temperature;BME280_humidity;BME280_pressure;Samples;Min_cycle;Max_cycle;Signal;HPM_P1;HPM_P2
2024/02/28 00:03:10;;;;;;;26.13;17.60;;;;;;;12.17;55.90;98713.59;6759840;29;20213;-85
2024/02/28 00:06:31;;;;;;;24.90;17.77;;;;;;;11.99;55.90;98666.75;6760551;29;20700;-85
2024/02/28 00:09:57;;;;;;;24.43;17.10;;;;;;;12.16;56.17;98711.94;6766715;29;20231;-84
2024/02/28 00:13:36;;;;;;;26.40;17.67;;;;;;;12.05;55.56;98645.06;6762325;29;20196;-84
2024/02/28 00:16:57;;;;;;;24.43;18.57;;;;;;;12.31;56.30;98715.19;6761879;29;20401;-84
2024/02/28 00:20:19;;;;;;;27.70;20.17;;;;;;;12.57;55.50;98717.69;6761390;29;20298;-85
2024/02/28 00:23:40;;;;;;;25.93;19.20;;;;;;;12.54;55.37;98722.72;6762075;29;20687;-84
2024/02/28 00:27:03;;;;;;;26.73;18.43;;;;;;;12.32;54.98;98649.25;6760988;29;20605;-84
2024/02/28 00:30:35;;;;;;;25.57;17.70;;;;;;;12.46;54.30;98674.31;6760713;29;20233;-84
2024/02/28 01:26:03;;;;;;;25.77;17.87;;;;;;;12.55;53.99;98733.31;6481160;30;20221;-84
2024/02/28 01:29:26;;;;;;;28.10;18.33;;;;;;;12.79;53.20;98731.66;6481320;30;20244;-84
2024/02/28 01:32:47;;;;;;;26.27;19.17;;;;;;;12.83;53.31;98730.19;6482356;30;20307;-84
2024/02/28 01:36:09;;;;;;;30.07;20.07;;;;;;;12.66;53.71;98738.03;6481997;30;20271;-84
2024/02/28 01:39:30;;;;;;;30.23;19.80;;;;;;;12.86;53.56;98727.06;6533189;30;20216;-84
2024/02/28 01:42:52;;;;;;;29.83;20.23;;;;;;;13.05;52.75;98731.47;6578793;30;20311;-83
2024/02/28 01:46:22;;;;;;;28.37;21.27;;;;;;;12.74;53.63;98745.06;6611239;29;20305;-84
2024/02/28 01:49:45;;;;;;;26.37;20.17;;;;;;;12.63;53.32;98726.81;6712033;29;20243;-84
2024/02/28 01:53:08;;;;;;;32.37;21.03;;;;;;;12.82;53.11;98742.06;6732753;29;20202;-84
2024/02/28 01:56:30;;;;;;;26.80;18.90;;;;;;;12.49;53.35;98745.00;6732375;29;20254;-84
2024/02/28 01:59:54;;;;;;;28.03;19.37;;;;;;;12.46;53.74;98737.31;6732125;29;20260;-84
2024/02/28 02:03:17;;;;;;;30.50;19.83;;;;;;;12.78;53.07;98752.50;6732157;29;20213;-84
2024/02/28 02:06:40;;;;;;;32.47;20.63;;;;;;;12.63;53.46;98743.06;6732709;29;20233;-84
2024/02/28 02:10:01;;;;;;;27.93;19.33;;;;;;;12.92;52.67;98747.81;6732335;29;20643;-84
2024/02/28 02:13:23;;;;;;;30.00;21.17;;;;;;;12.89;52.75;98762.59;6732286;29;20205;-84
2024/02/28 02:16:45;;;;;;;28.10;19.37;;;;;;;12.78;53.01;98762.47;6745714;29;20380;-84
2024/02/28 02:20:11;;;;;;;28.83;19.33;;;;;;;12.76;52.68;98753.75;6757908;29;20300;-84
2024/02/28 02:23:35;;;;;;;30.07;20.70;;;;;;;12.61;53.12;98777.59;6757946;29;20231;-84
2024/02/28 02:26:59;;;;;;;29.97;19.67;;;;;;;12.61;52.98;98766.75;6757798;29;20233;-84
2024/02/28 02:30:20;;;;;;;31.87;19.70;;;;;;;12.88;52.31;98766.38;6757270;29;20343;-84
2024/02/28 02:33:42;;;;;;;29.60;20.07;;;;;;;12.41;53.26;98777.72;6757428;29;20300;-84
2024/02/28 02:37:04;;;;;;;28.17;19.37;;;;;;;12.50;53.46;98787.22;6757299;29;20352;-84
2024/02/28 02:40:26;;;;;;;28.00;19.23;;;;;;;12.36;53.48;98793.78;6756797;29;20688;-84
2024/02/28 02:43:48;;;;;;;25.60;18.73;;;;;;;12.17;53.37;98783.88;6757117;29;20337;-84
2024/02/28 02:47:10;;;;;;;27.97;19.63;;;;;;;12.49;52.92;98803.66;6757347;29;20273;-84
2024/02/28 02:50:31;;;;;;;27.10;18.57;;;;;;;12.45;53.04;98810.56;6757659;29;20231;-84
2024/02/28 02:53:53;;;;;;;27.30;19.80;;;;;;;12.54;52.56;98820.06;6758569;29;20287;-84
2024/02/28 02:57:16;;;;;;;25.57;18.37;;;;;;;12.54;52.54;98815.50;6758258;29;20240;-84
2024/02/28 03:00:38;;;;;;;30.00;19.87;;;;;;;11.92;53.90;98818.06;6758316;29;20577;-84
2024/02/28 03:03:59;;;;;;;28.20;19.97;;;;;;;12.33;53.33;98825.81;6758400;29;20295;-84
2024/02/28 03:07:21;;;;;;;26.73;19.37;;;;;;;12.69;52.35;98826.03;6757980;29;20275;-84
2024/02/28 03:10:42;;;;;;;24.37;19.03;;;;;;;12.65;52.32;98827.50;6757808;29;20268;-84
2024/02/28 03:14:05;;;;;;;26.43;19.37;;;;;;;12.21;53.47;98822.13;6758561;29;20362;-84
2024/02/28 03:17:27;;;;;;;28.60;18.90;;;;;;;12.30;53.32;98837.06;6757627;29;20355;-84
2024/02/28 03:20:48;;;;;;;28.40;19.87;;;;;;;12.57;52.79;98844.00;6758130;29;20750;-84
2024/02/28 03:24:10;;;;;;;28.47;19.47;;;;;;;12.75;52.01;98830.56;6758774;29;20357;-82
2024/02/28 03:27:31;;;;;;;26.87;18.30;;;;;;;12.44;52.72;98847.59;6762522;29;20231;-82
2024/02/28 03:30:54;;;;;;;27.33;19.77;;;;;;;12.09;53.43;98849.00;6767100;29;20358;-82
2024/02/28 03:34:16;;;;;;;26.53;18.90;;;;;;;12.05;53.76;98855.84;6766872;29;20272;-81
2024/02/28 03:37:37;;;;;;;27.53;19.53;;;;;;;12.14;53.27;98873.50;6766334;29;20315;-82
2024/02/28 03:40:59;;;;;;;27.30;18.90;;;;;;;12.32;52.66;98870.09;6767017;29;20218;-82
2024/02/28 03:44:21;;;;;;;31.90;20.30;;;;;;;12.47;52.74;98871.50;6767081;29;20272;-82
2024/02/28 03:47:44;;;;;;;27.70;18.70;;;;;;;12.51;52.71;98872.72;6766730;29;20233;-82
2024/02/28 03:51:05;;;;;;;28.10;19.60;;;;;;;12.52;52.40;98863.56;6765959;29;20260;-82
2024/02/28 03:54:27;;;;;;;28.43;20.70;;;;;;;12.52;52.47;98878.97;6767344;29;20254;-82
2024/02/28 03:57:51;;;;;;;31.30;21.20;;;;;;;12.33;53.10;98872.59;6767483;29;20259;-82
2024/02/28 04:01:13;;;;;;;29.13;20.20;;;;;;;12.35;53.07;98859.72;6770772;29;20208;-82
2024/02/28 04:04:38;;;;;;;31.43;21.30;;;;;;;12.23;53.39;98868.69;6769828;29;20204;-84
2024/02/28 04:08:01;;;;;;;31.07;20.93;;;;;;;12.37;53.13;98865.72;6763147;29;20726;-84
2024/02/28 04:11:23;;;;;;;30.50;20.50;;;;;;;12.36;52.74;98869.47;6763128;29;20258;-84
2024/02/28 04:14:45;;;;;;;29.17;19.87;;;;;;;12.04;53.00;98837.19;6762934;29;20284;-84
2024/02/28 04:18:07;;;;;;;27.03;20.37;;;;;;;12.04;52.98;98819.06;6763346;29;20239;-84
2024/02/28 04:21:29;;;;;;;30.13;20.90;;;;;;;11.89;54.22;98885.22;6763411;29;20287;-85
2024/02/28 04:24:51;;;;;;;29.70;21.47;;;;;;;11.77;53.97;98852.63;6763164;29;20223;-84
2024/02/28 04:28:13;;;;;;;29.73;20.93;;;;;;;11.44;53.96;98792.41;6762246;29;20237;-84
2024/02/28 04:31:34;;;;;;;30.87;20.63;;;;;;;12.13;53.61;98896.19;6762889;29;20733;-84
2024/02/28 04:34:56;;;;;;;32.53;22.10;;;;;;;12.21;53.88;98887.81;6762075;29;20349;-84
2024/02/28 04:38:18;;;;;;;32.63;22.03;;;;;;;12.27;53.53;98895.06;6762262;29;20348;-84
2024/02/28 04:41:40;;;;;;;29.23;20.80;;;;;;;12.62;52.96;98900.97;6761860;29;20712;-83
2024/02/28 04:45:02;;;;;;;31.13;20.43;;;;;;;12.58;52.84;98897.03;6760264;29;20291;-83
2024/02/28 04:48:24;;;;;;;34.87;21.97;;;;;;;12.71;52.43;98910.50;6736214;29;20228;-83
2024/02/28 04:51:45;;;;;;;31.73;21.87;;;;;;;12.63;52.68;98905.34;6736702;29;20324;-83
2024/02/28 04:55:08;;;;;;;36.57;22.13;;;;;;;12.15;52.91;98842.72;6737076;29;20703;-84
2024/02/28 04:58:30;;;;;;;27.20;19.57;;;;;;;12.54;53.05;98893.09;6748026;29;20831;-83
2024/02/28 05:01:51;;;;;;;29.50;19.93;;;;;;;12.08;53.86;98905.94;6762368;29;20242;-83
2024/02/28 05:05:13;;;;;;;31.50;20.67;;;;;;;11.95;53.99;98892.47;6761732;29;20211;-84
2024/02/28 05:08:38;;;;;;;30.17;19.60;;;;;;;11.99;53.82;98889.13;6761717;29;20313;-84
2024/02/28 05:12:01;;;;;;;30.80;21.33;;;;;;;12.06;54.14;98908.03;6762405;29;20321;-83
2024/02/28 05:15:23;;;;;;;29.77;20.30;;;;;;;11.90;54.09;98920.13;6761971;29;20303;-83
2024/02/28 05:18:45;;;;;;;32.13;20.53;;;;;;;12.27;53.40;98934.81;6761738;29;20255;-84
2024/02/28 05:22:07;;;;;;;32.43;20.33;;;;;;;11.65;54.21;98931.78;6762070;29;20240;-84
2024/02/28 05:25:28;;;;;;;31.80;20.93;;;;;;;11.44;54.98;98929.25;6762746;29;20306;-83
2024/02/28 05:28:52;;;;;;;31.77;20.90;;;;;;;11.66;54.90;98933.47;6762100;29;20327;-83
2024/02/28 05:36:39;;;;;;;35.53;22.93;;;;;;;11.74;53.93;98877.34;6728766;29;20257;-84
2024/02/28 05:40:03;;;;;;;32.17;21.70;;;;;;;11.60;55.12;98937.84;6737755;29;20208;-83
2024/02/28 05:43:24;;;;;;;36.53;24.03;;;;;;;11.99;53.99;98939.66;6733417;29;20317;-84
2024/02/28 05:46:48;;;;;;;35.40;22.20;;;;;;;11.93;54.51;98946.72;6732866;29;20360;-84
2024/02/28 05:50:11;;;;;;;32.93;21.83;;;;;;;11.56;53.83;98884.44;6732582;29;20618;-84
2024/02/28 05:53:35;;;;;;;29.47;19.87;;;;;;;12.23;53.52;98957.91;6738458;29;20209;-85
2024/02/28 05:56:57;;;;;;;30.27;19.73;;;;;;;11.80;53.81;98946.75;6732848;29;20220;-84
2024/02/28 06:00:19;;;;;;;31.63;20.10;;;;;;;12.22;53.17;98965.16;6728978;29;20216;-83
2024/02/28 06:03:42;;;;;;;29.60;19.77;;;;;;;12.22;53.82;98958.94;6729738;29;20236;-84
2024/02/28 06:07:05;;;;;;;29.80;19.20;;;;;;;12.17;54.40;98958.75;6747655;29;20315;-84
2024/02/28 06:10:27;;;;;;;28.73;20.23;;;;;;;12.30;54.28;98986.59;6757699;29;20286;-84
2024/02/28 06:13:49;;;;;;;26.17;18.40;;;;;;;12.26;54.42;98987.19;6758216;29;20211;-85
2024/02/28 06:17:11;;;;;;;24.97;17.60;;;;;;;12.08;54.82;98960.84;6758373;29;20239;-83
2024/02/28 06:20:34;;;;;;;23.93;16.97;;;;;;;12.25;54.47;98986.38;6758958;29;20252;-83
2024/02/28 06:23:55;;;;;;;24.33;17.57;;;;;;;11.78;55.62;99004.72;6758358;29;20272;-84
2024/02/28 06:27:17;;;;;;;24.37;17.07;;;;;;;11.90;55.52;98974.16;6757760;29;20593;-83
2024/02/28 06:30:38;;;;;;;26.00;18.43;;;;;;;12.18;54.90;99011.75;6758629;29;20302;-83
2024/02/28 06:34:00;;;;;;;24.73;18.17;;;;;;;11.89;55.40;99020.31;6757735;29;20298;-84
2024/02/28 06:37:23;;;;;;;23.37;16.33;;;;;;;12.16;54.87;99001.16;6760269;29;20237;-83
2024/02/28 06:40:44;;;;;;;22.33;18.10;;;;;;;12.39;54.76;99028.56;6760007;29;20290;-83
2024/02/28 06:44:07;;;;;;;25.33;17.93;;;;;;;11.88;54.93;98992.47;6758143;29;20351;-84
2024/02/28 06:47:29;;;;;;;28.30;17.87;;;;;;;12.09;54.87;99043.56;6758532;29;20234;-83
2024/02/28 06:50:50;;;;;;;23.17;16.93;;;;;;;12.05;54.66;99050.44;6759157;29;20258;-83
2024/02/28 06:54:13;;;;;;;24.57;17.73;;;;;;;11.93;55.02;99043.19;6758765;29;20695;-84
2024/02/28 06:57:34;;;;;;;26.13;17.77;;;;;;;12.10;55.10;99045.22;6760179;29;20296;-84
2024/02/28 07:00:56;;;;;;;22.80;17.47;;;;;;;12.07;54.72;99042.13;6758726;29;20246;-83
2024/02/28 07:04:17;;;;;;;26.70;18.30;;;;;;;12.17;54.76;99047.94;6757616;29;20259;-83
2024/02/28 07:07:39;;;;;;;24.23;17.83;;;;;;;11.87;55.03;99054.81;6758088;29;20241;-83
2024/02/28 07:11:02;;;;;;;22.33;17.27;;;;;;;12.13;55.04;99057.50;6758551;29;20311;-83
2024/02/28 07:14:24;;;;;;;24.87;17.37;;;;;;;12.18;54.74;99058.56;6756622;29;20228;-84
2024/02/28 07:17:45;;;;;;;26.17;17.83;;;;;;;12.12;54.21;99045.03;6757594;29;20323;-82
2024/02/28 07:21:07;;;;;;;25.17;18.43;;;;;;;11.93;55.47;99064.78;6757257;29;20698;-83
2024/02/28 07:24:29;;;;;;;23.97;17.77;;;;;;;11.48;54.66;98931.38;6756731;29;20212;-83
2024/02/28 07:28:02;;;;;;;24.87;18.47;;;;;;;12.27;54.31;99064.59;6765527;29;20326;-83
2024/02/28 07:31:33;;;;;;;24.10;16.77;;;;;;;12.42;54.42;99078.69;6755929;29;20242;-86
2024/02/28 07:34:55;;;;;;;25.77;17.20;;;;;;;12.24;54.61;99084.75;6756049;29;20238;-83
2024/02/28 07:38:20;;;;;;;27.43;17.97;;;;;;;11.86;54.43;99018.03;6756505;29;20754;-85
2024/02/28 07:41:46;;;;;;;24.90;18.60;;;;;;;11.23;54.76;98942.97;6758156;29;20205;-85
2024/02/28 07:45:09;;;;;;;23.40;17.57;;;;;;;11.38;55.26;98989.47;6756278;29;20359;-85
2024/02/28 07:48:31;;;;;;;22.53;17.47;;;;;;;11.18;55.43;98975.13;6755557;29;20706;-85
2024/02/28 07:51:52;;;;;;;25.43;18.87;;;;;;;12.02;54.87;99107.63;6755595;29;20326;-85
2024/02/28 07:55:14;;;;;;;23.17;16.63;;;;;;;11.79;55.05;99084.72;6745202;29;20231;-85
2024/02/28 07:58:36;;;;;;;23.73;17.57;;;;;;;11.80;54.82;99079.09;6756155;29;20235;-85
2024/02/28 08:01:59;;;;;;;25.43;18.03;;;;;;;12.18;54.42;99098.25;6757062;29;20208;-85
2024/02/28 08:05:21;;;;;;;25.97;18.60;;;;;;;11.29;54.56;98972.69;6757180;29;20698;-85
2024/02/28 08:08:45;;;;;;;26.13;18.13;;;;;;;11.67;54.87;99071.00;6756677;29;20239;-85
2024/02/28 08:12:07;;;;;;;24.30;17.40;;;;;;;12.09;54.68;99121.97;6755760;29;20328;-85
2024/02/28 08:15:28;;;;;;;23.50;16.97;;;;;;;12.10;54.66;99118.22;6760504;29;20234;-85
2024/02/28 08:18:51;;;;;;;26.60;19.30;;;;;;;11.54;54.26;99003.44;6757404;29;20249;-85
2024/02/28 08:22:13;;;;;;;24.20;17.87;;;;;;;11.96;54.03;99035.47;6762644;29;20212;-85
2024/02/28 08:25:38;;;;;;;22.83;16.80;;;;;;;11.32;54.20;98995.69;6738512;29;20309;-87
2024/02/28 08:28:59;;;;;;;29.37;18.80;;;;;;;11.43;54.10;98976.19;6751367;29;20272;-87
2024/02/28 08:32:23;;;;;;;27.43;18.90;;;;;;;11.65;54.05;99013.66;6762488;29;20244;-87
2024/02/28 08:35:46;;;;;;;25.53;18.80;;;;;;;11.35;54.77;99019.59;6764133;29;20232;-86
2024/02/28 08:39:09;;;;;;;23.77;18.33;;;;;;;11.40;55.12;99033.31;6763204;29;20330;-86
2024/02/28 08:42:30;;;;;;;27.97;18.70;;;;;;;11.46;54.51;99025.22;6762194;29;20216;-87
2024/02/28 08:45:54;;;;;;;25.10;18.70;;;;;;;11.94;55.20;99139.41;6762403;29;20254;-87
2024/02/28 08:49:18;;;;;;;25.67;18.13;;;;;;;11.87;54.10;99085.34;6762159;29;20231;-86
2024/02/28 08:52:41;;;;;;;25.43;18.10;;;;;;;11.58;54.14;99022.75;6761936;29;20235;-85
2024/02/28 08:56:03;;;;;;;25.43;18.00;;;;;;;11.56;53.39;98997.84;6749031;29;20217;-86
2024/02/28 09:03:51;;;;;;;24.43;17.90;;;;;;;12.36;53.78;99139.00;6748372;29;20207;-86
2024/02/28 09:07:13;;;;;;;24.17;18.27;;;;;;;12.09;53.82;99129.25;6761982;29;20379;-86
2024/02/28 09:10:36;;;;;;;24.07;17.93;;;;;;;12.02;53.35;99088.69;6759970;29;20235;-86
2024/02/28 09:13:57;;;;;;;26.80;17.70;;;;;;;11.93;53.74;99087.22;6760311;29;20247;-86
2024/02/28 09:17:22;;;;;;;24.27;18.87;;;;;;;12.09;53.33;99096.81;6760241;29;20257;-85
2024/02/28 09:20:44;;;;;;;25.70;18.37;;;;;;;11.93;53.73;99099.91;6761391;29;20236;-86
2024/02/28 09:24:09;;;;;;;28.30;18.03;;;;;;;12.40;53.91;99135.69;6759569;29;20207;-85
2024/02/28 09:27:32;;;;;;;25.57;18.67;;;;;;;12.48;53.25;99151.72;6760068;29;20243;-86
2024/02/28 09:30:54;;;;;;;26.13;19.10;;;;;;;12.25;53.68;99145.88;6760345;29;20589;-86
2024/02/28 09:34:16;;;;;;;27.17;19.00;;;;;;;11.92;53.39;99025.31;6760615;29;20216;-86
2024/02/28 09:37:38;;;;;;;25.13;17.87;;;;;;;12.56;53.11;99137.16;6760203;29;20236;-86
2024/02/28 09:41:03;;;;;;;24.47;18.60;;;;;;;12.32;52.40;99057.50;6765373;29;20255;-86
2024/02/28 09:44:46;;;;;;;28.00;19.80;;;;;;;12.56;53.33;99156.09;6761718;29;20211;-85
2024/02/28 09:48:36;;;;;;;28.50;19.40;;;;;;;11.73;53.40;99021.56;6760290;29;20368;-85
2024/02/28 09:51:58;;;;;;;30.07;19.57;;;;;;;12.46;52.55;99102.38;6764000;29;20326;-86
2024/02/28 09:55:25;;;;;;;30.60;20.13;;;;;;;12.68;52.08;99165.22;6761617;29;20223;-86
2024/02/28 09:59:11;;;;;;;26.57;18.33;;;;;;;12.53;51.98;99110.50;6757588;29;20225;-85
2024/02/28 10:02:43;;;;;;;29.30;19.20;;;;;;;12.18;51.91;99025.28;6763657;29;20213;-85
2024/02/28 10:06:29;;;;;;;26.17;18.23;;;;;;;12.62;52.37;99163.38;6764300;29;20233;-85
2024/02/28 10:10:01;;;;;;;27.73;18.57;;;;;;;12.11;51.40;99025.28;6762347;29;20221;-85
2024/02/28 10:14:07;;;;;;;;;;;;;;;;;;;;;
2024/02/28 10:17:28;;;;;;;29.50;19.70;;;;;;;12.81;52.12;99159.78;6725457;29;20240;-85
2024/02/28 10:20:52;;;;;;;28.43;18.93;;;;;;;12.66;52.32;99178.97;6760459;29;20243;-85
2024/02/28 10:24:16;;;;;;;29.30;19.53;;;;;;;12.64;52.10;99188.31;6761647;29;20672;-84
2024/02/28 10:27:38;;;;;;;29.93;20.03;;;;;;;12.23;52.88;99191.19;6761008;29;20251;-84
2024/02/28 10:30:59;;;;;;;28.97;18.37;;;;;;;12.48;52.96;99178.75;6755784;29;20220;-84
2024/02/28 10:34:21;;;;;;;28.50;19.07;;;;;;;12.29;52.91;99195.81;6764089;29;20245;-84
2024/02/28 10:37:45;;;;;;;29.17;19.23;;;;;;;12.28;53.57;99196.81;6762062;29;20332;-84
2024/02/28 10:41:07;;;;;;;34.90;19.87;;;;;;;12.50;52.15;99206.41;6761716;29;20295;-85
2024/02/28 10:44:29;;;;;;;30.97;19.63;;;;;;;12.30;52.06;99148.81;6761794;29;20211;-84
2024/02/28 10:47:51;;;;;;;25.90;18.93;;;;;;;12.51;51.41;99128.81;6761300;29;20236;-84
2024/02/28 10:51:16;;;;;;;30.53;18.27;;;;;;;13.07;51.19;99227.44;6767214;29;20739;-84
2024/02/28 10:54:42;;;;;;;27.23;18.60;;;;;;;12.64;50.65;99153.16;6752720;29;20264;-84
2024/02/28 10:58:08;;;;;;;30.47;20.13;;;;;;;12.65;51.97;99215.16;6761238;29;20276;-84
2024/02/28 11:01:30;;;;;;;28.13;19.10;;;;;;;12.08;52.18;99176.22;6759960;29;20271;-84
2024/02/28 11:04:52;;;;;;;32.70;21.47;;;;;;;12.25;52.30;99178.31;6761008;29;20220;-84
2024/02/28 11:08:22;;;;;;;32.13;20.77;;;;;;;12.69;52.03;99204.75;6759253;29;20642;-84
2024/02/28 11:11:47;;;;;;;28.50;19.60;;;;;;;12.74;51.97;99213.09;6760599;29;20266;-82
2024/02/28 11:16:14;;;;;;;33.23;19.30;;;;;;;12.50;52.29;99213.69;6757240;29;20217;-85
2024/02/28 11:19:40;;;;;;;33.07;20.57;;;;;;;12.24;52.28;99205.56;6714216;29;20226;-85
2024/02/28 11:28:10;;;;;;;32.83;20.93;;;;;;;12.50;52.57;99229.91;6756652;29;20243;-85
2024/02/28 11:31:49;;;;;;;32.47;19.40;;;;;;;13.17;51.91;99230.56;6756081;29;20239;-84
2024/02/28 11:39:06;;;;;;;28.67;19.10;;;;;;;13.00;51.31;99222.06;6756290;29;20279;-84
2024/02/28 11:42:28;;;;;;;27.50;19.07;;;;;;;12.84;51.35;99237.84;6761662;29;20204;-83
2024/02/28 11:45:50;;;;;;;32.77;19.47;;;;;;;12.89;51.22;99222.66;6759844;29;20264;-83
2024/02/28 11:49:13;;;;;;;30.57;19.60;;;;;;;12.86;51.38;99244.69;6757942;29;20338;-83
2024/02/28 11:52:35;;;;;;;31.90;21.43;;;;;;;12.56;51.34;99223.72;6761439;29;20320;-84
2024/02/28 11:55:56;;;;;;;32.87;19.13;;;;;;;12.49;51.62;99230.97;6761192;29;20313;-84
2024/02/28 11:59:18;;;;;;;30.57;19.27;;;;;;;12.89;50.97;99233.47;6763252;29;20885;-85
2024/02/28 12:02:40;;;;;;;29.17;18.53;;;;;;;12.35;51.74;99242.81;6775697;29;20664;-86
2024/02/28 12:06:03;;;;;;;29.80;19.47;;;;;;;12.82;51.49;99235.38;6779534;29;20305;-86
2024/02/28 12:09:26;;;;;;;32.23;18.73;;;;;;;12.98;51.38;99226.00;6762743;29;20243;-85
2024/02/28 12:12:49;;;;;;;28.43;19.07;;;;;;;12.33;52.14;99220.56;6762529;29;20236;-86
2024/02/28 12:16:13;;;;;;;30.70;19.40;;;;;;;11.87;53.46;99228.53;6763767;29;20269;-87
2024/02/28 12:24:13;;;;;;;26.40;17.43;;;;;;;11.84;53.19;99214.59;6751480;29;20586;-85
2024/02/28 12:27:56;;;;;;;28.20;17.57;;;;;;;11.69;52.40;99158.03;6763878;29;20242;-84
2024/02/28 12:48:05;;;;;;;25.90;17.27;;;;;;;11.99;52.27;99194.47;6708985;29;20330;-84
2024/02/28 12:51:55;;;;;;;26.67;16.53;;;;;;;12.39;52.14;99206.22;6710680;29;20234;-83
2024/02/28 12:55:57;;;;;;;27.80;17.10;;;;;;;12.21;52.11;99206.81;6706706;29;20218;-84
2024/02/28 12:59:23;;;;;;;27.20;18.67;;;;;;;12.74;51.25;99197.66;6706247;29;20289;-84
2024/02/28 13:03:25;;;;;;;26.23;16.17;;;;;;;12.03;52.08;99211.16;6717238;29;20305;-83
2024/02/28 13:06:55;;;;;;;27.30;17.43;;;;;;;12.09;51.43;99102.22;6752373;29;20239;-84
2024/02/28 13:10:27;;;;;;;;;;;;;;;;;;;;;
2024/02/28 13:18:14;;;;;;;27.60;17.43;;;;;;;12.79;50.27;99140.22;6706137;29;20219;-84
2024/02/28 13:21:36;;;;;;;28.67;16.90;;;;;;;12.45;50.23;99135.88;6681684;29;20273;-84
2024/02/28 13:25:23;;;;;;;28.80;17.70;;;;;;;12.22;50.12;99086.00;6706229;29;20225;-84
2024/02/28 13:32:23;;;;;;;27.83;17.20;;;;;;;11.82;50.69;99078.91;6695848;29;20689;-83
2024/02/28 13:35:54;;;;;;;23.60;16.20;;;;;;;12.27;49.80;99054.59;6706280;29;20279;-84
2024/02/28 13:39:15;;;;;;;26.97;17.93;;;;;;;13.04;49.67;99196.19;6705600;29;20270;-84
2024/02/28 13:42:41;;;;;;;29.87;18.00;;;;;;;12.58;50.26;99151.28;6708079;29;20210;-84
2024/02/28 13:46:26;;;;;;;25.70;15.23;;;;;;;12.99;49.88;99195.19;6708422;29;20204;-84
2024/02/28 13:49:49;;;;;;;33.47;20.03;;;;;;;12.77;50.15;99145.84;6708429;29;20323;-84
2024/02/28 13:53:32;;;;;;;30.47;18.70;;;;;;;13.05;50.69;99197.06;6707112;29;20647;-86
2024/02/28 13:57:04;;;;;;;25.83;17.30;;;;;;;12.69;49.51;99115.47;6707887;29;20229;-85
2024/02/28 14:01:06;;;;;;;25.23;15.33;;;;;;;13.29;49.32;99180.13;6707092;29;20222;-85
2024/02/28 14:04:53;;;;;;;28.63;17.20;;;;;;;12.44;50.04;99095.53;6681406;29;20220;-85
2024/02/28 14:08:30;;;;;;;25.20;17.50;;;;;;;13.11;48.48;99107.69;6718108;29;20271;-85
2024/02/28 14:11:54;;;;;;;22.30;15.53;;;;;;;13.57;48.23;99148.94;6761123;29;20240;-85
2024/02/28 14:15:36;;;;;;;24.27;15.87;;;;;;;12.96;48.17;99084.63;6761946;29;20671;-86
2024/02/28 14:22:53;;;;;;;25.63;16.33;;;;;;;13.76;47.65;99166.97;6707242;29;20255;-85
2024/02/28 14:26:14;;;;;;;23.23;15.17;;;;;;;13.26;48.96;99191.34;6714675;29;20246;-84
2024/02/28 14:29:51;;;;;;;19.13;14.10;;;;;;;13.13;48.81;99127.28;6758829;29;20213;-84
2024/02/28 14:33:28;;;;;;;25.73;16.73;;;;;;;12.81;48.25;99081.31;6764079;29;20771;-84
2024/02/28 14:36:56;;;;;;;24.57;16.03;;;;;;;13.64;47.59;99203.94;6761998;29;20240;-84
2024/02/28 14:43:59;;;;;;;24.10;15.10;;;;;;;13.87;47.08;99170.91;6730848;29;20272;-83
2024/02/28 14:51:48;;;;;;;22.93;15.10;;;;;;;12.75;48.79;99064.03;6759092;29;20288;-86
2024/02/28 14:55:37;;;;;;;22.23;15.13;;;;;;;13.54;47.51;99132.28;6679524;29;20222;-83
2024/02/28 15:03:09;;;;;;;24.30;16.53;;;;;;;13.03;47.87;99036.72;6648661;29;20332;-85
2024/02/28 15:06:39;;;;;;;22.63;16.20;;;;;;;13.19;46.89;99047.91;6724691;29;20308;-84
2024/02/28 15:10:04;;;;;;;19.40;14.20;;;;;;;13.87;46.29;99127.53;6760475;29;20221;-85
2024/02/28 15:14:05;;;;;;;23.53;15.77;;;;;;;13.53;47.81;99184.81;6759003;29;20238;-83
2024/02/28 15:17:48;;;;;;;36.20;19.07;;;;;;;13.28;48.32;99178.47;6754132;29;20250;-85
2024/02/28 15:24:51;;;;;;;19.43;13.87;;;;;;;13.58;47.68;99174.16;6757498;29;20759;-83
2024/02/28 15:28:18;;;;;;;21.83;14.83;;;;;;;13.54;47.98;99181.06;6759595;29;20343;-84
2024/02/28 15:31:45;;;;;;;19.23;14.47;;;;;;;13.47;48.72;99181.09;6743818;29;20192;-83
2024/02/28 15:35:15;;;;;;;21.30;13.93;;;;;;;13.70;47.00;99162.41;6760011;29;20582;-85
2024/02/28 15:38:39;;;;;;;18.97;13.63;;;;;;;13.88;46.69;99167.97;6759839;29;20298;-84
2024/02/28 15:42:15;;;;;;;21.03;14.17;;;;;;;13.59;46.95;99127.91;6760476;29;20212;-84
2024/02/28 15:45:42;;;;;;;19.57;13.50;;;;;;;13.45;46.59;99068.59;6763726;29;20765;-84
2024/02/28 15:49:08;;;;;;;21.73;14.27;;;;;;;13.80;46.09;99124.84;6759327;29;20716;-85
2024/02/28 15:52:43;;;;;;;21.57;15.40;;;;;;;13.54;47.42;99176.47;6759506;29;20233;-84
2024/02/28 15:56:08;;;;;;;24.90;15.53;;;;;;;13.55;47.52;99172.72;6759264;29;20558;-84
2024/02/28 15:59:30;;;;;;;23.03;15.33;;;;;;;13.58;47.94;99182.31;6758277;29;20229;-84
2024/02/28 16:02:54;;;;;;;20.00;14.20;;;;;;;13.54;47.93;99179.19;6759094;29;20692;-85
2024/02/28 16:06:24;;;;;;;21.13;14.70;;;;;;;13.82;47.59;99168.00;6759016;29;20814;-84
2024/02/28 16:09:48;;;;;;;21.80;15.00;;;;;;;13.68;47.07;99137.44;6759293;29;20217;-84
2024/02/28 16:13:12;;;;;;;21.30;13.90;;;;;;;13.90;46.67;99182.13;6755622;29;20332;-84
2024/02/28 16:16:34;;;;;;;18.83;13.40;;;;;;;13.37;46.56;99080.50;6757894;29;20239;-85
2024/02/28 16:23:40;;;;;;;23.30;15.47;;;;;;;13.49;46.72;99130.25;6730269;29;20249;-85
2024/02/28 16:27:22;;;;;;;20.63;13.70;;;;;;;13.80;46.87;99176.34;6731011;29;20249;-86
2024/02/28 16:30:47;;;;;;;19.30;13.20;;;;;;;13.68;47.50;99188.09;6723180;29;20205;-86
2024/02/28 16:34:09;;;;;;;22.63;14.93;;;;;;;13.55;47.99;99180.84;6731872;29;20230;-87
2024/02/28 16:41:31;;;;;;;40.17;28.93;;;;;;;13.52;46.68;99142.53;6723518;29;20231;-87
2024/02/28 16:45:47;;;;;;;21.30;14.87;;;;;;;12.86;46.91;99040.94;6727294;29;20695;-87
2024/02/28 16:49:48;;;;;;;23.33;14.93;;;;;;;13.18;47.35;99132.88;6734821;29;20818;-86
2024/02/28 16:53:09;;;;;;;20.33;14.07;;;;;;;13.61;47.67;99181.84;6739113;29;20235;-86
2024/02/28 16:56:31;;;;;;;22.13;14.20;;;;;;;13.81;46.77;99198.88;6764301;29;20679;-85
2024/02/28 16:59:52;;;;;;;22.73;17.23;;;;;;;13.77;46.92;99189.50;6770041;29;20291;-86
2024/02/28 17:03:19;;;;;;;20.53;15.80;;;;;;;13.61;47.14;99180.00;6760622;29;20208;-86
2024/02/28 17:06:43;;;;;;;17.07;13.93;;;;;;;13.74;46.65;99187.25;6761219;29;20241;-86
2024/02/28 17:19:05;;;;;;;20.47;14.70;;;;;;;13.67;46.88;99200.81;6629341;29;20266;-88
2024/02/28 17:27:18;;;;;;;18.53;13.57;;;;;;;13.65;47.61;99216.47;6615211;29;20267;-87
2024/02/28 17:31:16;;;;;;;20.93;15.00;;;;;;;12.95;47.53;99156.00;6655989;29;20301;-84
2024/02/28 17:34:38;;;;;;;23.77;14.90;;;;;;;12.99;48.46;99230.38;6650210;29;20803;-87
2024/02/28 17:38:01;;;;;;;23.80;14.33;;;;;;;12.74;48.33;99154.38;6656526;29;20712;-87
2024/02/28 17:41:23;;;;;;;20.00;13.83;;;;;;;13.03;48.69;99239.72;6655426;29;20237;-86
2024/02/28 17:44:50;;;;;;;21.50;15.07;;;;;;;12.96;48.08;99168.53;6684214;29;20265;-85
2024/02/28 17:48:12;;;;;;;21.17;13.97;;;;;;;13.49;47.92;99230.47;6705082;29;20234;-84
2024/02/28 17:51:35;;;;;;;19.90;14.20;;;;;;;13.35;47.89;99215.31;6705932;29;20300;-86
2024/02/28 17:54:58;;;;;;;22.07;13.93;;;;;;;13.41;48.11;99241.56;6743546;29;20246;-84
2024/02/28 17:58:21;;;;;;;22.47;14.67;;;;;;;13.42;47.62;99217.97;6761233;29;20237;-85
2024/02/28 18:01:48;;;;;;;21.60;15.00;;;;;;;13.67;47.26;99243.31;6760991;29;20665;-85
2024/02/28 18:05:12;;;;;;;22.23;15.37;;;;;;;13.52;47.92;99245.47;6778338;29;20301;-85
2024/02/28 18:12:09;;;;;;;20.93;14.80;;;;;;;13.38;48.97;99243.81;6784453;29;20274;-85
2024/02/28 18:15:31;;;;;;;21.43;14.23;;;;;;;13.41;48.93;99244.25;6769208;29;20586;-83